createdAt,value
2019-02-25T00:00:16.293Z,68.50
2019-02-25T00:01:00.736Z,68.30
2019-02-25T00:01:41.477Z,69.10
2019-02-25T00:02:31.449Z,70.50
2019-02-25T00:03:10.126Z,71.00
2019-02-25T00:03:49.104Z,71.20
2019-02-25T00:04:28.394Z,71.20
2019-02-25T00:05:07.672Z,71.40
2019-02-25T00:05:46.613Z,71.40
2019-02-25T00:06:25.968Z,71.40
2019-02-25T00:07:05.295Z,72.50
2019-02-25T00:07:44.621Z,71.50
2019-02-25T00:08:23.957Z,69.40
2019-02-25T00:09:02.647Z,68.90
2019-02-25T00:09:41.300Z,69.50
2019-02-25T00:10:20.060Z,71.10
2019-02-25T00:10:59.093Z,71.60
2019-02-25T00:11:38.374Z,71.70
2019-02-25T00:12:17.625Z,71.50
2019-02-25T00:12:56.878Z,71.60
2019-02-25T00:13:36.366Z,71.70
2019-02-25T00:14:15.143Z,71.70
2019-02-25T00:14:53.764Z,71.50
2019-02-25T00:15:33.100Z,71.50
2019-02-25T00:16:11.747Z,68.30
2019-02-25T00:16:50.350Z,67.20
2019-02-25T00:17:29.032Z,65.90
2019-02-25T00:18:07.743Z,64.80
2019-02-25T00:18:46.420Z,63.70
2019-02-25T00:19:25.851Z,62.50
2019-02-25T00:20:04.572Z,61.40
2019-02-25T00:20:43.302Z,61.00
2019-02-25T00:21:21.972Z,61.50
2019-02-25T00:22:00.904Z,62.00
2019-02-25T00:22:40.054Z,63.20
2019-02-25T00:23:19.185Z,64.00
2019-02-25T00:23:58.645Z,64.60
2019-02-25T00:24:37.351Z,65.80
2019-02-25T00:25:16.357Z,65.60
2019-02-25T00:25:55.127Z,66.20
2019-02-25T00:26:34.273Z,66.60
2019-02-25T00:27:12.894Z,66.90
2019-02-25T00:27:51.580Z,67.20
2019-02-25T00:28:30.208Z,65.70
2019-02-25T00:29:09.495Z,65.00
2019-02-25T00:29:49.036Z,65.60
2019-02-25T00:30:28.240Z,66.50
2019-02-25T00:31:07.607Z,67.80
2019-02-25T00:31:46.950Z,68.10
2019-02-25T00:32:25.543Z,68.40
2019-02-25T00:33:04.248Z,69.00
2019-02-25T00:33:42.961Z,69.30
2019-02-25T00:34:21.836Z,69.60
2019-02-25T00:35:00.868Z,70.50
2019-02-25T00:35:40.251Z,70.90
2019-02-25T00:36:19.703Z,70.10
2019-02-25T00:36:58.755Z,67.90
2019-02-25T00:37:38.155Z,68.00
2019-02-25T00:38:17.444Z,69.50
2019-02-25T00:38:57.359Z,70.80
2019-02-25T00:39:36.863Z,71.10
2019-02-25T00:40:15.509Z,71.20
2019-02-25T00:40:55.438Z,71.20
2019-02-25T00:41:34.119Z,71.60
2019-02-25T00:42:13.431Z,71.80
2019-02-25T00:42:52.200Z,71.70
2019-02-25T00:43:31.550Z,71.60
2019-02-25T00:44:10.692Z,69.60
2019-02-25T00:44:49.971Z,67.80
2019-02-25T00:45:29.193Z,66.90
2019-02-25T00:46:08.455Z,65.50
2019-02-25T00:46:47.979Z,64.30
2019-02-25T00:47:26.871Z,63.30
2019-02-25T00:48:05.542Z,62.30
2019-02-25T00:48:44.473Z,61.50
2019-02-25T00:49:23.145Z,60.20
2019-02-25T00:50:01.783Z,59.70
2019-02-25T00:50:40.477Z,59.10
2019-02-25T00:51:19.112Z,59.50
2019-02-25T00:51:58.643Z,59.90
2019-02-25T00:52:37.889Z,61.40
2019-02-25T00:53:17.386Z,62.30
2019-02-25T00:53:56.011Z,63.00
2019-02-25T00:54:35.526Z,63.40
2019-02-25T00:55:14.425Z,63.80
2019-02-25T00:55:53.352Z,64.30
2019-02-25T00:56:32.546Z,64.90
2019-02-25T00:57:12.510Z,65.30
2019-02-25T00:57:51.232Z,65.50
2019-02-25T00:58:29.917Z,64.40
2019-02-25T00:59:08.650Z,63.50
2019-02-25T00:59:47.398Z,63.90
2019-02-25T01:00:25.994Z,65.20
2019-02-25T01:01:04.679Z,66.40
2019-02-25T01:01:43.382Z,66.90
2019-02-25T01:02:22.562Z,67.20
2019-02-25T01:03:01.944Z,67.60
2019-02-25T01:03:41.047Z,67.80
2019-02-25T01:04:20.224Z,68.30
2019-02-25T01:04:58.899Z,68.50
2019-02-25T01:05:37.577Z,68.90
2019-02-25T01:06:16.172Z,68.90
2019-02-25T01:06:55.025Z,65.60
2019-02-25T01:07:33.859Z,65.60
2019-02-25T01:08:13.041Z,63.60
2019-02-25T01:08:52.225Z,62.60
2019-02-25T01:09:31.288Z,61.50
2019-02-25T01:10:11.561Z,60.70
2019-02-25T01:10:50.325Z,59.90
2019-02-25T01:11:29.819Z,59.10
2019-02-25T01:12:09.335Z,58.50
2019-02-25T01:12:48.943Z,58.80
2019-02-25T01:13:27.681Z,59.20
2019-02-25T01:14:06.289Z,60.00
2019-02-25T01:14:45.137Z,61.20
2019-02-25T01:15:24.176Z,61.30
2019-02-25T01:16:03.129Z,62.50
2019-02-25T01:16:42.625Z,62.90
2019-02-25T01:17:21.930Z,63.30
2019-02-25T01:18:00.547Z,64.00
2019-02-25T01:18:39.826Z,64.40
2019-02-25T01:19:19.120Z,64.70
2019-02-25T01:19:57.711Z,64.60
2019-02-25T01:20:36.450Z,62.70
2019-02-25T01:21:15.305Z,62.90
2019-02-25T01:21:54.600Z,63.40
2019-02-25T01:22:33.207Z,65.20
2019-02-25T01:23:11.822Z,66.00
2019-02-25T01:23:51.280Z,66.30
2019-02-25T01:24:29.956Z,66.40
2019-02-25T01:25:10.363Z,66.80
2019-02-25T01:25:49.842Z,66.90
2019-02-25T01:26:29.033Z,64.30
2019-02-25T01:27:07.617Z,63.20
2019-02-25T01:27:46.738Z,62.20
2019-02-25T01:28:26.016Z,61.40
2019-02-25T01:29:04.759Z,60.30
2019-02-25T01:29:44.619Z,59.70
2019-02-25T01:30:23.194Z,58.90
2019-02-25T01:31:01.876Z,58.30
2019-02-25T01:31:40.497Z,58.40
2019-02-25T01:32:19.526Z,58.80
2019-02-25T01:32:58.190Z,59.30
2019-02-25T01:33:37.153Z,60.50
2019-02-25T01:34:15.723Z,61.40
2019-02-25T01:34:55.239Z,62.00
2019-02-25T01:35:34.464Z,62.50
2019-02-25T01:36:13.664Z,62.80
2019-02-25T01:36:53.007Z,63.30
2019-02-25T01:37:31.693Z,63.80
2019-02-25T01:38:10.379Z,64.10
2019-02-25T01:38:49.389Z,64.30
2019-02-25T01:40:14.769Z,62.20
2019-02-25T01:40:54.130Z,63.00
2019-02-25T01:41:33.431Z,64.70
2019-02-25T01:42:13.368Z,65.50
2019-02-25T01:42:52.565Z,65.80
2019-02-25T01:43:31.253Z,66.10
2019-02-25T01:44:10.580Z,64.40
2019-02-25T01:44:49.319Z,62.70
2019-02-25T01:45:28.076Z,61.90
2019-02-25T01:46:07.349Z,61.00
2019-02-25T01:46:45.936Z,60.20
2019-02-25T01:47:24.499Z,59.30
2019-02-25T01:48:03.172Z,58.60
2019-02-25T01:48:41.866Z,58.00
2019-02-25T01:49:20.521Z,58.00
2019-02-25T01:49:59.269Z,58.40
2019-02-25T01:50:38.075Z,59.00
2019-02-25T01:51:17.021Z,60.10
2019-02-25T01:51:56.528Z,61.80
2019-02-25T01:52:35.714Z,61.50
2019-02-25T01:53:15.557Z,61.30
2019-02-25T01:53:54.552Z,62.60
2019-02-25T01:54:33.265Z,63.10
2019-02-25T01:55:12.367Z,63.40
2019-02-25T01:55:51.028Z,63.80
2019-02-25T01:56:29.673Z,64.20
2019-02-25T01:57:09.107Z,62.50
2019-02-25T01:57:48.085Z,60.90
2019-02-25T01:58:26.673Z,60.00
2019-02-25T01:59:05.428Z,59.40
2019-02-25T01:59:44.055Z,59.00
2019-02-25T02:00:22.742Z,58.20
2019-02-25T02:01:01.474Z,57.40
2019-02-25T02:01:40.146Z,57.90
2019-02-25T02:02:18.759Z,58.50
2019-02-25T02:02:57.537Z,59.10
2019-02-25T02:03:36.254Z,59.80
2019-02-25T02:04:14.938Z,60.70
2019-02-25T02:04:53.646Z,61.20
2019-02-25T02:05:32.350Z,61.70
2019-02-25T02:06:10.991Z,62.40
2019-02-25T02:06:49.678Z,62.90
2019-02-25T02:07:28.346Z,63.40
2019-02-25T02:08:07.078Z,63.70
2019-02-25T02:08:46.271Z,63.90
2019-02-25T02:09:24.967Z,61.90
2019-02-25T02:10:03.659Z,61.80
2019-02-25T02:10:42.395Z,63.00
2019-02-25T02:11:21.049Z,65.00
2019-02-25T02:11:59.954Z,65.00
2019-02-25T02:12:38.643Z,65.10
2019-02-25T02:13:17.919Z,62.30
2019-02-25T02:13:57.384Z,61.40
2019-02-25T02:14:36.429Z,60.70
2019-02-25T02:15:17.324Z,60.30
2019-02-25T02:15:56.559Z,58.90
2019-02-25T02:16:35.865Z,58.40
2019-02-25T02:17:15.220Z,57.80
2019-02-25T02:17:53.861Z,57.40
2019-02-25T02:18:32.575Z,58.00
2019-02-25T02:19:11.238Z,58.70
2019-02-25T02:19:50.037Z,59.60
2019-02-25T02:20:29.232Z,60.30
2019-02-25T02:21:08.463Z,61.20
2019-02-25T02:21:47.774Z,61.50
2019-02-25T02:22:26.992Z,62.10
2019-02-25T02:23:05.658Z,62.50
2019-02-25T02:23:45.045Z,63.10
2019-02-25T02:24:23.853Z,63.40
2019-02-25T02:25:03.557Z,63.80
2019-02-25T02:25:42.798Z,62.50
2019-02-25T02:26:21.516Z,60.50
2019-02-25T02:27:00.299Z,60.00
2019-02-25T02:27:39.406Z,59.30
2019-02-25T02:28:18.719Z,58.60
2019-02-25T02:28:58.065Z,58.10
2019-02-25T02:29:37.306Z,57.40
2019-02-25T02:30:20.567Z,57.30
2019-02-25T02:31:00.012Z,58.00
2019-02-25T02:31:39.415Z,58.40
2019-02-25T02:32:18.789Z,59.60
2019-02-25T02:32:57.483Z,60.40
2019-02-25T02:33:36.860Z,61.00
2019-02-25T02:34:16.352Z,61.50
2019-02-25T02:34:55.605Z,62.10
2019-02-25T02:35:34.251Z,63.20
2019-02-25T02:36:12.931Z,63.10
2019-02-25T02:36:51.657Z,63.40
2019-02-25T02:37:31.538Z,63.50
2019-02-25T02:38:10.507Z,61.50
2019-02-25T02:38:49.843Z,60.60
2019-02-25T02:39:29.019Z,59.80
2019-02-25T02:40:09.230Z,59.70
2019-02-25T02:40:48.538Z,58.60
2019-02-25T02:41:27.551Z,58.00
2019-02-25T02:42:26.291Z,57.50
2019-02-25T02:43:04.893Z,57.70
2019-02-25T02:43:43.617Z,58.50
2019-02-25T02:44:22.578Z,59.70
2019-02-25T02:45:03.539Z,60.50
2019-02-25T02:46:02.007Z,61.10
2019-02-25T02:47:17.428Z,61.80
2019-02-25T02:48:10.868Z,62.50
2019-02-25T02:48:53.263Z,63.40
2019-02-25T02:49:32.219Z,63.70
2019-02-25T02:50:13.557Z,62.10
2019-02-25T02:50:52.620Z,61.80
2019-02-25T02:51:31.861Z,62.30
2019-02-25T02:52:10.710Z,63.90
2019-02-25T02:52:49.868Z,64.60
2019-02-25T02:53:29.382Z,65.10
2019-02-25T02:54:08.569Z,63.70
2019-02-25T02:54:47.834Z,61.60
2019-02-25T02:55:26.496Z,61.00
2019-02-25T02:56:05.208Z,60.00
2019-02-25T02:56:43.934Z,59.40
2019-02-25T02:57:22.794Z,58.80
2019-02-25T02:58:01.961Z,58.30
2019-02-25T02:58:41.126Z,57.50
2019-02-25T02:59:20.412Z,57.10
2019-02-25T02:59:59.437Z,57.40
2019-02-25T03:00:38.614Z,58.30
2019-02-25T03:01:18.013Z,58.90
2019-02-25T03:01:56.609Z,59.70
2019-02-25T03:02:35.313Z,60.70
2019-02-25T03:03:13.998Z,61.50
2019-02-25T03:03:52.607Z,62.00
2019-02-25T03:04:31.376Z,62.40
2019-02-25T03:05:11.323Z,62.80
2019-02-25T03:05:50.557Z,62.20
2019-02-25T03:06:29.663Z,60.40
2019-02-25T03:07:09.107Z,60.50
2019-02-25T03:07:48.453Z,59.10
2019-02-25T03:08:27.844Z,58.50
2019-02-25T03:09:07.750Z,57.80
2019-02-25T03:09:46.456Z,57.60
2019-02-25T03:10:25.102Z,57.30
2019-02-25T03:11:03.852Z,57.80
2019-02-25T03:11:43.266Z,58.40
2019-02-25T03:12:21.948Z,59.30
2019-02-25T03:13:00.720Z,60.10
2019-02-25T03:13:39.357Z,60.80
2019-02-25T03:14:18.152Z,61.40
2019-02-25T03:14:56.795Z,62.00
2019-02-25T03:15:35.677Z,62.60
2019-02-25T03:16:14.763Z,62.90
2019-02-25T03:16:53.756Z,61.90
2019-02-25T03:17:32.841Z,60.00
2019-02-25T03:18:12.173Z,59.40
2019-02-25T03:18:51.331Z,58.90
2019-02-25T03:19:30.153Z,58.50
2019-02-25T03:20:09.135Z,57.90
2019-02-25T03:20:47.890Z,57.30
2019-02-25T03:21:26.554Z,56.90
2019-02-25T03:22:05.438Z,56.80
2019-02-25T03:22:44.655Z,57.20
2019-02-25T03:23:23.234Z,58.10
2019-02-25T03:24:02.733Z,59.00
2019-02-25T03:24:42.216Z,60.50
2019-02-25T03:25:21.701Z,60.40
2019-02-25T03:26:01.135Z,60.90
2019-02-25T03:26:40.369Z,61.60
2019-02-25T03:27:19.738Z,62.20
2019-02-25T03:27:58.411Z,62.60
2019-02-25T03:28:37.097Z,63.40
2019-02-25T03:29:16.325Z,62.40
2019-02-25T03:29:55.236Z,60.30
2019-02-25T03:30:34.345Z,59.80
2019-02-25T03:31:13.413Z,59.10
2019-02-25T03:31:52.097Z,58.70
2019-02-25T03:32:31.458Z,58.00
2019-02-25T03:33:10.729Z,57.40
2019-02-25T03:33:49.345Z,57.30
2019-02-25T03:34:28.525Z,57.90
2019-02-25T03:35:08.037Z,59.00
2019-02-25T03:35:46.686Z,59.30
2019-02-25T03:36:25.567Z,60.40
2019-02-25T03:37:04.285Z,61.10
2019-02-25T03:37:43.530Z,61.70
2019-02-25T03:38:22.599Z,62.10
2019-02-25T03:39:01.973Z,62.80
2019-02-25T03:39:41.367Z,63.40
2019-02-25T03:40:23.750Z,63.30
2019-02-25T03:41:02.659Z,60.80
2019-02-25T03:41:41.971Z,60.20
2019-02-25T03:42:20.627Z,59.50
2019-02-25T03:42:59.211Z,58.90
2019-02-25T03:43:37.893Z,58.20
2019-02-25T03:44:16.483Z,58.00
2019-02-25T03:44:55.189Z,58.40
2019-02-25T03:45:33.927Z,59.00
2019-02-25T03:46:13.372Z,59.80
2019-02-25T03:46:52.582Z,60.80
2019-02-25T03:47:31.437Z,61.50
2019-02-25T03:48:10.563Z,62.00
2019-02-25T03:48:49.220Z,62.40
2019-02-25T03:49:27.873Z,62.80
2019-02-25T03:50:06.711Z,63.50
2019-02-25T03:50:46.043Z,63.70
2019-02-25T03:51:25.561Z,61.50
2019-02-25T03:52:04.136Z,60.50
2019-02-25T03:52:42.792Z,59.80
2019-02-25T03:53:21.503Z,59.30
2019-02-25T03:54:00.177Z,58.80
2019-02-25T03:54:38.924Z,58.20
2019-02-25T03:55:19.181Z,57.60
2019-02-25T03:55:58.319Z,57.10
2019-02-25T03:56:37.535Z,56.60
2019-02-25T03:57:17.000Z,56.40
2019-02-25T03:57:56.301Z,56.60
2019-02-25T03:58:35.558Z,57.10
2019-02-25T03:59:14.829Z,57.70
2019-02-25T03:59:53.984Z,58.90
2019-02-25T04:00:32.674Z,59.70
2019-02-25T04:01:11.295Z,60.10
2019-02-25T04:01:49.994Z,60.70
2019-02-25T04:02:28.892Z,61.30
2019-02-25T04:03:07.542Z,61.80
2019-02-25T04:03:47.142Z,62.50
2019-02-25T04:04:26.363Z,62.80
2019-02-25T04:05:05.637Z,63.10
2019-02-25T04:05:45.082Z,60.50
2019-02-25T04:06:24.414Z,59.90
2019-02-25T04:07:03.612Z,59.50
2019-02-25T04:07:42.918Z,59.00
2019-02-25T04:08:21.536Z,58.30
2019-02-25T04:09:00.163Z,57.70
2019-02-25T04:09:38.937Z,57.40
2019-02-25T04:10:18.238Z,56.90
2019-02-25T04:10:57.369Z,56.60
2019-02-25T04:11:36.941Z,56.10
2019-02-25T04:12:16.160Z,55.70
2019-02-25T04:12:55.651Z,55.80
2019-02-25T04:13:34.291Z,55.80
2019-02-25T04:14:13.177Z,55.80
2019-02-25T04:14:51.754Z,55.90
2019-02-25T04:15:35.291Z,56.00
2019-02-25T04:16:14.233Z,56.00
2019-02-25T04:16:52.904Z,56.10
2019-02-25T04:17:31.486Z,56.10
2019-02-25T04:18:10.129Z,56.00
2019-02-25T04:18:49.141Z,56.00
2019-02-25T04:19:28.418Z,56.00
2019-02-25T04:20:07.985Z,55.80
2019-02-25T04:20:47.039Z,55.80
2019-02-25T04:21:26.507Z,55.80
2019-02-25T04:22:05.663Z,55.90
2019-02-25T04:22:44.877Z,55.80
2019-02-25T04:23:24.294Z,55.90
2019-02-25T04:24:03.673Z,55.80
2019-02-25T04:24:42.252Z,55.80
2019-02-25T04:25:21.207Z,55.70
2019-02-25T04:25:59.860Z,56.00
2019-02-25T04:26:38.544Z,55.90
2019-02-25T04:27:17.706Z,55.80
2019-02-25T04:28:14.826Z,55.90
2019-02-25T04:28:53.512Z,55.60
2019-02-25T04:29:32.220Z,55.80
2019-02-25T04:30:12.253Z,55.60
2019-02-25T04:30:51.069Z,55.60
2019-02-25T04:31:30.198Z,55.40
2019-02-25T04:32:09.555Z,55.40
2019-02-25T04:32:48.907Z,55.50
2019-02-25T04:33:27.964Z,55.40
2019-02-25T04:34:07.570Z,55.30
2019-02-25T04:34:47.624Z,55.60
2019-02-25T04:35:26.939Z,55.30
2019-02-25T04:36:06.236Z,54.90
2019-02-25T04:36:44.899Z,55.50
2019-02-25T04:37:23.743Z,55.40
2019-02-25T04:38:03.116Z,55.20
2019-02-25T04:38:42.072Z,55.20
2019-02-25T04:39:20.768Z,55.20
2019-02-25T04:40:00.101Z,55.00
2019-02-25T04:40:38.816Z,55.00
2019-02-25T04:41:18.387Z,55.20
2019-02-25T04:41:57.547Z,55.30
2019-02-25T04:42:36.265Z,55.10
2019-02-25T04:43:15.692Z,55.00
2019-02-25T04:43:54.257Z,55.00
2019-02-25T04:44:33.630Z,55.00
2019-02-25T04:45:18.387Z,55.00
2019-02-25T04:45:57.803Z,54.80
2019-02-25T04:46:37.545Z,54.90
2019-02-25T04:47:16.213Z,54.90
2019-02-25T04:47:55.319Z,54.90
2019-02-25T04:48:34.016Z,54.80
2019-02-25T04:49:12.629Z,54.90
2019-02-25T04:49:51.677Z,54.80
2019-02-25T04:50:30.996Z,54.80
2019-02-25T04:51:10.491Z,54.80
2019-02-25T04:51:49.887Z,54.70
2019-02-25T04:52:29.245Z,54.90
2019-02-25T04:53:07.939Z,54.70
2019-02-25T04:53:46.566Z,54.50
2019-02-25T04:54:25.323Z,54.60
2019-02-25T04:55:04.037Z,54.60
2019-02-25T04:55:42.940Z,54.70
2019-02-25T04:56:21.639Z,55.10
2019-02-25T04:57:01.059Z,54.60
2019-02-25T04:57:40.054Z,54.60
2019-02-25T04:58:19.559Z,54.60
2019-02-25T04:58:58.230Z,54.60
2019-02-25T04:59:37.697Z,54.60
2019-02-25T05:00:18.678Z,54.50
2019-02-25T05:00:58.063Z,54.50
2019-02-25T05:01:37.198Z,54.40
2019-02-25T05:02:15.824Z,54.20
2019-02-25T05:02:55.078Z,54.10
2019-02-25T05:03:33.740Z,54.10
2019-02-25T05:04:12.482Z,54.10
2019-02-25T05:04:51.114Z,54.00
2019-02-25T05:05:30.352Z,54.00
2019-02-25T05:06:09.752Z,54.10
2019-02-25T05:06:49.020Z,54.00
2019-02-25T05:07:27.760Z,53.90
2019-02-25T05:08:06.471Z,53.80
2019-02-25T05:09:03.812Z,53.80
2019-02-25T05:09:42.577Z,53.40
2019-02-25T05:10:22.188Z,53.60
2019-02-25T05:11:00.833Z,53.40
2019-02-25T05:11:40.047Z,53.30
2019-02-25T05:12:19.360Z,53.10
2019-02-25T05:13:03.310Z,53.60
2019-02-25T05:13:42.266Z,52.90
2019-02-25T05:14:21.558Z,53.00
2019-02-25T05:15:01.033Z,53.00
2019-02-25T05:15:40.346Z,52.90
2019-02-25T05:16:19.122Z,52.70
2019-02-25T05:16:57.833Z,52.70
2019-02-25T05:17:36.455Z,52.40
2019-02-25T05:18:15.222Z,52.40
2019-02-25T05:18:54.425Z,52.30
2019-02-25T05:19:33.695Z,52.20
2019-02-25T05:20:12.438Z,52.20
2019-02-25T05:20:51.770Z,52.10
2019-02-25T05:21:30.970Z,52.60
2019-02-25T05:22:10.180Z,52.00
2019-02-25T05:22:49.426Z,51.90
2019-02-25T05:23:28.318Z,51.90
2019-02-25T05:24:06.951Z,51.60
2019-02-25T05:24:45.858Z,51.60
2019-02-25T05:25:25.275Z,51.50
2019-02-25T05:26:04.197Z,51.30
2019-02-25T05:26:43.455Z,51.30
2019-02-25T05:27:22.570Z,51.10
2019-02-25T05:28:01.274Z,51.10
2019-02-25T05:28:40.489Z,51.10
2019-02-25T05:29:19.144Z,51.00
2019-02-25T05:29:58.552Z,51.00
2019-02-25T05:30:37.238Z,50.90
2019-02-25T05:31:15.952Z,50.90
2019-02-25T05:31:54.971Z,50.90
2019-02-25T05:32:33.661Z,50.70
2019-02-25T05:33:12.192Z,50.50
2019-02-25T05:33:50.774Z,50.30
2019-02-25T05:34:29.453Z,50.20
2019-02-25T05:35:08.329Z,50.00
2019-02-25T05:35:47.009Z,49.90
2019-02-25T05:36:25.930Z,49.80
2019-02-25T05:37:05.025Z,49.70
2019-02-25T05:37:44.355Z,49.60
2019-02-25T05:38:23.773Z,49.50
2019-02-25T05:39:02.377Z,49.40
2019-02-25T05:39:42.360Z,49.40
2019-02-25T05:40:21.005Z,49.50
2019-02-25T05:41:46.182Z,49.50
2019-02-25T05:42:24.823Z,49.50
2019-02-25T05:43:03.643Z,49.60
2019-02-25T05:43:42.250Z,49.70
2019-02-25T05:44:21.334Z,49.80
2019-02-25T05:45:00.001Z,49.60
2019-02-25T05:45:41.484Z,49.70
2019-02-25T05:46:20.959Z,49.60
2019-02-25T05:47:00.419Z,49.60
2019-02-25T05:47:39.067Z,50.10
2019-02-25T05:48:18.448Z,50.10
2019-02-25T05:48:57.984Z,50.20
2019-02-25T05:49:36.664Z,49.90
2019-02-25T05:50:16.870Z,50.00
2019-02-25T05:50:55.556Z,50.10
2019-02-25T05:51:34.230Z,50.20
2019-02-25T05:52:13.693Z,50.10
2019-02-25T05:52:52.368Z,50.00
2019-02-25T05:53:30.938Z,50.20
2019-02-25T05:54:09.526Z,50.40
2019-02-25T05:54:48.219Z,50.30
2019-02-25T05:55:27.190Z,50.40
2019-02-25T05:56:06.232Z,50.40
2019-02-25T05:56:46.063Z,50.40
2019-02-25T05:57:26.285Z,50.30
2019-02-25T05:58:04.997Z,50.50
2019-02-25T05:58:43.716Z,50.70
2019-02-25T05:59:22.319Z,50.70
2019-02-25T06:00:01.000Z,50.80
2019-02-25T06:00:40.369Z,50.90
2019-02-25T06:01:19.055Z,51.00
2019-02-25T06:01:58.503Z,51.10
2019-02-25T06:02:37.500Z,51.20
2019-02-25T06:03:16.811Z,51.10
2019-02-25T06:03:55.539Z,51.30
2019-02-25T06:04:34.742Z,51.60
2019-02-25T06:05:13.397Z,51.80
2019-02-25T06:05:51.927Z,52.10
2019-02-25T06:06:30.633Z,52.20
2019-02-25T06:07:10.523Z,52.20
2019-02-25T06:07:49.848Z,52.20
2019-02-25T06:08:28.562Z,52.20
2019-02-25T06:09:08.018Z,52.30
2019-02-25T06:09:46.698Z,52.40
2019-02-25T06:10:25.909Z,52.50
2019-02-25T06:11:05.159Z,52.60
2019-02-25T06:11:44.621Z,52.70
2019-02-25T06:12:23.871Z,52.70
2019-02-25T06:13:03.152Z,52.70
2019-02-25T06:13:42.362Z,52.70
2019-02-25T06:14:21.027Z,52.80
2019-02-25T06:14:59.781Z,52.80
2019-02-25T06:15:38.490Z,52.90
2019-02-25T06:16:17.607Z,52.90
2019-02-25T06:16:56.766Z,53.00
2019-02-25T06:17:36.277Z,52.90
2019-02-25T06:18:15.066Z,53.40
2019-02-25T06:18:53.642Z,52.90
2019-02-25T06:19:32.505Z,53.20
2019-02-25T06:20:11.946Z,53.20
2019-02-25T06:20:51.222Z,53.20
2019-02-25T06:21:30.451Z,53.20
2019-02-25T06:22:09.182Z,53.20
2019-02-25T06:22:47.913Z,53.30
2019-02-25T06:23:26.628Z,53.20
2019-02-25T06:24:05.377Z,53.10
2019-02-25T06:24:44.019Z,53.40
2019-02-25T06:25:22.641Z,53.70
2019-02-25T06:26:01.337Z,54.00
2019-02-25T06:26:40.105Z,53.90
2019-02-25T06:27:19.375Z,53.90
2019-02-25T06:27:57.997Z,53.80
2019-02-25T06:28:37.158Z,53.90
2019-02-25T06:29:15.807Z,54.00
2019-02-25T06:29:54.455Z,54.00
2019-02-25T06:30:33.112Z,54.00
2019-02-25T06:31:11.810Z,54.00
2019-02-25T06:31:50.630Z,54.00
2019-02-25T06:32:29.484Z,54.10
2019-02-25T06:33:08.150Z,54.20
2019-02-25T06:33:47.632Z,54.10
2019-02-25T06:34:27.165Z,54.00
2019-02-25T06:35:06.360Z,54.20
2019-02-25T06:35:45.575Z,54.20
2019-02-25T06:36:24.374Z,54.20
2019-02-25T06:37:03.122Z,54.30
2019-02-25T06:37:43.084Z,54.40
2019-02-25T06:38:21.798Z,54.40
2019-02-25T06:39:00.458Z,54.40
2019-02-25T06:39:39.600Z,54.40
2019-02-25T06:40:19.177Z,54.40
2019-02-25T06:40:58.331Z,54.50
2019-02-25T06:41:37.775Z,54.60
2019-02-25T06:42:18.037Z,54.60
2019-02-25T06:42:57.407Z,54.70
2019-02-25T06:43:37.650Z,54.70
2019-02-25T06:44:16.384Z,54.60
2019-02-25T06:44:55.105Z,54.70
2019-02-25T06:45:34.516Z,54.70
2019-02-25T06:46:13.175Z,54.50
2019-02-25T06:46:51.875Z,54.80
2019-02-25T06:47:30.437Z,54.70
2019-02-25T06:48:10.758Z,54.70
2019-02-25T06:48:49.893Z,54.70
2019-02-25T06:49:29.097Z,54.70
2019-02-25T06:50:08.559Z,54.70
2019-02-25T06:50:48.599Z,54.70
2019-02-25T06:51:27.919Z,54.80
2019-02-25T06:52:07.168Z,54.90
2019-02-25T06:52:45.809Z,55.00
2019-02-25T06:53:24.991Z,54.80
2019-02-25T06:54:03.712Z,54.80
2019-02-25T06:54:42.410Z,54.80
2019-02-25T06:55:21.113Z,54.80
2019-02-25T06:55:59.837Z,54.80
2019-02-25T06:56:39.161Z,54.80
2019-02-25T06:57:18.353Z,55.00
2019-02-25T06:57:57.381Z,55.00
2019-02-25T06:58:36.111Z,55.00
2019-02-25T06:59:14.840Z,55.00
2019-02-25T06:59:53.618Z,55.00
2019-02-25T07:00:32.524Z,55.00
2019-02-25T07:01:11.388Z,55.00
2019-02-25T07:01:50.598Z,55.00
2019-02-25T07:02:29.331Z,55.10
2019-02-25T07:03:08.019Z,55.00
2019-02-25T07:03:48.798Z,55.00
2019-02-25T07:04:51.219Z,55.10
2019-02-25T07:06:00.032Z,55.10
2019-02-25T07:06:55.257Z,55.10
2019-02-25T07:08:10.941Z,55.00
2019-02-25T07:09:23.440Z,55.00
2019-02-25T07:10:22.209Z,55.00
2019-02-25T07:11:21.622Z,55.10
2019-02-25T07:12:20.763Z,55.10
2019-02-25T07:13:23.380Z,55.20
2019-02-25T07:14:19.077Z,55.20
2019-02-25T07:15:22.636Z,55.10
2019-02-25T07:16:26.954Z,55.20
2019-02-25T07:17:22.796Z,55.20
2019-02-25T07:18:19.701Z,55.30
2019-02-25T07:19:17.975Z,55.20
2019-02-25T07:20:14.902Z,55.20
2019-02-25T07:21:03.568Z,55.20
2019-02-25T07:22:10.526Z,55.10
2019-02-25T07:22:57.510Z,55.20
2019-02-25T07:23:45.961Z,55.20
2019-02-25T07:24:41.427Z,55.20
2019-02-25T07:25:47.158Z,55.20
2019-02-25T07:26:46.889Z,55.30
2019-02-25T07:27:39.760Z,55.30
2019-02-25T07:28:55.501Z,55.30
2019-02-25T07:29:58.271Z,55.30
2019-02-25T07:31:03.990Z,55.30
2019-02-25T07:32:03.703Z,55.30
2019-02-25T07:32:55.983Z,55.20
2019-02-25T07:34:01.044Z,55.40
2019-02-25T07:35:08.318Z,55.30
2019-02-25T07:36:03.850Z,55.30
2019-02-25T07:37:01.092Z,55.30
2019-02-25T07:38:13.572Z,55.30
2019-02-25T07:39:18.836Z,55.30
2019-02-25T07:40:15.847Z,55.30
2019-02-25T07:41:10.687Z,55.30
2019-02-25T07:42:22.533Z,55.30
2019-02-25T07:43:29.054Z,55.30
2019-02-25T07:44:44.011Z,55.40
2019-02-25T07:45:34.908Z,55.30
2019-02-25T07:46:26.305Z,55.40
2019-02-25T07:47:23.367Z,54.80
2019-02-25T07:48:31.643Z,55.50
2019-02-25T07:49:18.977Z,55.50
2019-02-25T07:50:24.929Z,55.60
2019-02-25T07:51:30.683Z,55.60
2019-02-25T07:52:27.494Z,55.70
2019-02-25T07:53:29.614Z,55.60
2019-02-25T07:54:26.482Z,55.80
2019-02-25T07:55:23.585Z,55.80
2019-02-25T07:56:21.562Z,55.80
2019-02-25T07:57:21.183Z,55.90
2019-02-25T07:58:17.223Z,55.90
2019-02-25T07:59:14.102Z,56.00
2019-02-25T08:00:11.230Z,56.20
2019-02-25T08:01:14.218Z,56.10
2019-02-25T08:02:02.895Z,56.20
2019-02-25T08:03:11.464Z,56.20
2019-02-25T08:03:59.579Z,56.30
2019-02-25T08:05:08.737Z,56.30
2019-02-25T08:06:08.292Z,56.40
2019-02-25T08:07:04.504Z,56.60
2019-02-25T08:08:00.467Z,56.80
2019-02-25T08:09:00.184Z,57.10
2019-02-25T08:10:06.220Z,56.90
2019-02-25T08:11:15.228Z,56.90
2019-02-25T08:12:14.348Z,56.90
2019-02-25T08:13:10.163Z,57.10
2019-02-25T08:14:09.093Z,57.30
2019-02-25T08:15:09.121Z,57.50
2019-02-25T08:16:06.658Z,57.70
2019-02-25T08:17:04.637Z,57.90
2019-02-25T08:18:00.933Z,57.90
2019-02-25T08:18:53.697Z,57.80
2019-02-25T08:20:02.695Z,57.80
2019-02-25T08:20:53.401Z,57.70
2019-02-25T08:21:51.140Z,58.30
2019-02-25T08:23:06.062Z,58.00
2019-02-25T08:24:09.265Z,57.60
2019-02-25T08:25:06.065Z,58.00
2019-02-25T08:26:06.312Z,58.00
2019-02-25T08:27:05.556Z,58.20
2019-02-25T08:28:18.617Z,58.30
2019-02-25T08:29:28.146Z,58.40
2019-02-25T08:30:28.256Z,58.30
2019-02-25T08:31:34.814Z,58.60
2019-02-25T08:32:31.769Z,58.70
2019-02-25T08:33:46.772Z,58.50
2019-02-25T08:34:42.412Z,58.10
2019-02-25T08:36:27.442Z,58.40
2019-02-25T08:37:40.233Z,58.70
2019-02-25T08:38:37.473Z,59.70
2019-02-25T08:39:41.315Z,59.30
2019-02-25T08:40:41.594Z,59.00
2019-02-25T08:41:27.674Z,58.90
2019-02-25T08:42:21.210Z,58.90
2019-02-25T08:43:10.069Z,59.00
2019-02-25T08:44:07.207Z,59.50
2019-02-25T08:45:26.502Z,59.70
2019-02-25T08:46:14.188Z,59.70
2019-02-25T08:47:09.503Z,60.10
2019-02-25T08:48:02.745Z,59.90
2019-02-25T08:48:46.582Z,59.80
2019-02-25T08:49:45.986Z,59.80
2019-02-25T08:50:25.432Z,59.90
2019-02-25T08:51:04.583Z,59.90
2019-02-25T08:51:43.233Z,60.00
2019-02-25T08:52:21.837Z,59.90
2019-02-25T08:53:00.487Z,59.90
2019-02-25T08:53:39.173Z,60.00
2019-02-25T08:54:17.869Z,59.90
2019-02-25T08:54:56.520Z,60.00
2019-02-25T08:55:35.193Z,59.80
2019-02-25T08:56:14.944Z,59.80
2019-02-25T08:56:53.615Z,60.00
2019-02-25T08:57:32.324Z,59.80
2019-02-25T08:58:11.355Z,60.30
2019-02-25T08:58:50.662Z,60.70
2019-02-25T08:59:29.527Z,60.00
2019-02-25T09:00:09.450Z,60.60
2019-02-25T09:00:48.743Z,60.10
2019-02-25T09:01:27.503Z,59.90
2019-02-25T09:02:06.189Z,59.80
2019-02-25T09:02:45.404Z,59.80
2019-02-25T09:03:24.162Z,60.10
2019-02-25T09:04:03.042Z,59.60
2019-02-25T09:04:42.030Z,59.80